KAPA/APA METAR and TAF weather

Enter ICAO airport designator
Station Type Date Time Source
KAPA METAR 2019/10/21 05:53 UTC NOAA

KAPA 210553Z 32016G26KT 10SM SCT220 04/M12 A2991 RMK AO2 PK WND 31026/0550 SLP119 T00441117 10072 20028 50005 $


Station Type Date Time Source
KAPA Decoded METAR 2019/10/21 05:53 UTC NOAA

DENVER CENTENNIAL AIRPORT, CO, United States (KAPA) 39-34N 104-51W 1775M
Oct 21, 2019 - 01:53 AM EDT / 2019.10.21 0553 UTC
Wind: from the NW (320 degrees) at 18 MPH (16 KT) gusting to 30 MPH (26 KT):0
Visibility: 10 mile(s):0
Sky conditions: partly cloudy
Temperature: 39.9 F (4.4 C)
Dew Point: 10.9 F (-11.7 C)
Relative Humidity: 29%
Pressure (altimeter): 29.91 in. Hg (1012 hPa)
Pressure tendency: 0.01 inches (0.5 hPa) higher than three hours ago
ob: KAPA 210553Z 32016G26KT 10SM SCT220 04/M12 A2991 RMK AO2 PK WND 31026/0550 SLP119 T00441117 10072 20028 50005
cycle: 6

Station Type Date Time Source
KAPA TAF 2019/10/21 06:27 UTC NOAA

TAF KAPA 210523Z 2106/2206 31010KT P6SM FEW120 SCT220
FM210900 23009KT P6SM FEW150 SCT200
FM211600 28011KT P6SM SCT060 BKN120
FM211900 31015G25KT P6SM BKN080
FM220100 31010KT P6SM SCT080 BKN200

Example: see airport list